sensor_id;sensor_type;location;lat;lon;timestamp;pressure;altitude;pressure_sealevel;temperature;humidity
73332;BME280;61560;33.718;73.040;2022-08-21T00:01:12;94002.16;;;27.99;70.07
73332;BME280;61560;33.718;73.040;2022-08-21T00:03:40;94006.06;;;27.96;69.72
73332;BME280;61560;33.718;73.040;2022-08-21T00:06:07;94004.78;;;27.97;70.01
73332;BME280;61560;33.718;73.040;2022-08-21T00:08:34;94011.44;;;27.94;70.13
73332;BME280;61560;33.718;73.040;2022-08-21T00:11:00;94009.41;;;27.95;70.03
73332;BME280;61560;33.718;73.040;2022-08-21T00:13:27;94009.19;;;27.93;69.69
73332;BME280;61560;33.718;73.040;2022-08-21T00:15:54;94013.41;;;27.86;70.00
73332;BME280;61560;33.718;73.040;2022-08-21T00:18:20;94014.53;;;27.83;70.15
73332;BME280;61560;33.718;73.040;2022-08-21T00:20:47;94021.78;;;27.79;69.99
73332;BME280;61560;33.718;73.040;2022-08-21T00:23:15;94009.34;;;27.74;70.40
73332;BME280;61560;33.718;73.040;2022-08-21T00:25:43;94010.63;;;27.73;70.36
73332;BME280;61560;33.718;73.040;2022-08-21T00:28:10;94013.00;;;27.69;70.63
73332;BME280;61560;33.718;73.040;2022-08-21T00:30:37;94023.31;;;27.67;70.18
73332;BME280;61560;33.718;73.040;2022-08-21T00:33:04;94016.03;;;27.71;70.16
73332;BME280;61560;33.718;73.040;2022-08-21T00:35:35;94016.03;;;27.71;70.53
73332;BME280;61560;33.718;73.040;2022-08-21T00:38:03;94010.41;;;27.71;70.19
73332;BME280;61560;33.718;73.040;2022-08-21T00:40:55;94019.19;;;27.68;70.58
73332;BME280;61560;33.718;73.040;2022-08-21T00:43:28;94026.66;;;27.65;70.63
73332;BME280;61560;33.718;73.040;2022-08-21T00:45:56;94024.06;;;27.67;70.82
73332;BME280;61560;33.718;73.040;2022-08-21T00:48:24;94013.66;;;27.75;70.83
73332;BME280;61560;33.718;73.040;2022-08-21T00:51:02;94018.41;;;27.80;71.18
73332;BME280;61560;33.718;73.040;2022-08-21T00:53:30;94028.03;;;27.85;70.91
73332;BME280;61560;33.718;73.040;2022-08-21T00:55:58;94028.25;;;27.87;70.88
73332;BME280;61560;33.718;73.040;2022-08-21T00:58:27;94036.91;;;27.89;70.72
73332;BME280;61560;33.718;73.040;2022-08-21T02:02:23;94047.34;;;29.51;65.87
73332;BME280;61560;33.718;73.040;2022-08-21T02:04:49;94042.47;;;30.31;63.15
73332;BME280;61560;33.718;73.040;2022-08-21T02:07:16;94057.53;;;31.22;59.59
73332;BME280;61560;33.718;73.040;2022-08-21T02:09:42;94055.16;;;32.03;56.94
73332;BME280;61560;33.718;73.040;2022-08-21T02:12:10;94059.75;;;32.71;54.87
73332;BME280;61560;33.718;73.040;2022-08-21T02:14:37;94053.44;;;33.37;53.07
73332;BME280;61560;33.718;73.040;2022-08-21T02:17:05;94053.69;;;34.24;50.84
73332;BME280;61560;33.718;73.040;2022-08-21T02:19:32;94051.78;;;34.97;49.04
73332;BME280;61560;33.718;73.040;2022-08-21T02:21:58;94048.13;;;35.50;47.36
73332;BME280;61560;33.718;73.040;2022-08-21T02:24:25;94054.09;;;36.09;45.63
73332;BME280;61560;33.718;73.040;2022-08-21T02:26:51;94048.69;;;36.52;44.79
73332;BME280;61560;33.718;73.040;2022-08-21T02:29:18;94052.25;;;36.81;43.94
73332;BME280;61560;33.718;73.040;2022-08-21T02:31:44;94054.06;;;37.26;43.44
73332;BME280;61560;33.718;73.040;2022-08-21T02:34:11;94051.78;;;37.65;42.34
73332;BME280;61560;33.718;73.040;2022-08-21T02:36:38;94048.63;;;37.70;41.75
73332;BME280;61560;33.718;73.040;2022-08-21T02:39:04;94044.50;;;37.12;42.47
73332;BME280;61560;33.718;73.040;2022-08-21T02:41:31;94049.59;;;36.64;44.18
73332;BME280;61560;33.718;73.040;2022-08-21T02:44:01;94055.94;;;37.12;43.20
73332;BME280;61560;33.718;73.040;2022-08-21T02:46:27;94048.88;;;37.13;42.83
73332;BME280;61560;33.718;73.040;2022-08-21T02:48:54;94045.81;;;36.71;44.14
73332;BME280;61560;33.718;73.040;2022-08-21T02:51:20;94059.66;;;36.46;44.71
73332;BME280;61560;33.718;73.040;2022-08-21T02:53:49;94055.28;;;36.26;45.37
73332;BME280;61560;33.718;73.040;2022-08-21T02:56:18;94054.75;;;35.62;47.48
73332;BME280;61560;33.718;73.040;2022-08-21T02:58:49;94061.50;;;35.21;48.41
73332;BME280;61560;33.718;73.040;2022-08-21T03:01:17;94058.34;;;34.90;48.83
73332;BME280;61560;33.718;73.040;2022-08-21T03:03:45;94063.97;;;34.54;49.87
73332;BME280;61560;33.718;73.040;2022-08-21T03:06:14;94068.25;;;34.28;50.21
73332;BME280;61560;33.718;73.040;2022-08-21T03:08:41;94074.34;;;34.08;50.53
73332;BME280;61560;33.718;73.040;2022-08-21T03:11:12;94070.38;;;33.69;51.36
73332;BME280;61560;33.718;73.040;2022-08-21T03:13:38;94072.13;;;33.64;51.34
73332;BME280;61560;33.718;73.040;2022-08-21T03:16:06;94079.06;;;33.54;52.59
73332;BME280;61560;33.718;73.040;2022-08-21T03:18:33;94071.31;;;33.47;52.82
73332;BME280;61560;33.718;73.040;2022-08-21T03:21:00;94068.69;;;33.24;51.87
73332;BME280;61560;33.718;73.040;2022-08-21T03:23:26;94077.53;;;33.03;52.81
73332;BME280;61560;33.718;73.040;2022-08-21T03:25:53;94072.28;;;32.92;53.66
73332;BME280;61560;33.718;73.040;2022-08-21T03:28:20;94065.91;;;32.84;53.22
73332;BME280;61560;33.718;73.040;2022-08-21T03:30:50;94072.38;;;33.10;53.21
73332;BME280;61560;33.718;73.040;2022-08-21T03:33:18;94074.19;;;33.22;52.71
73332;BME280;61560;33.718;73.040;2022-08-21T03:35:52;94066.19;;;33.28;53.17
73332;BME280;61560;33.718;73.040;2022-08-21T03:38:21;94070.06;;;33.40;52.40
73332;BME280;61560;33.718;73.040;2022-08-21T03:40:47;94067.53;;;33.52;51.87
73332;BME280;61560;33.718;73.040;2022-08-21T03:43:14;94061.38;;;33.80;51.18
73332;BME280;61560;33.718;73.040;2022-08-21T03:45:41;94064.63;;;33.94;51.02
73332;BME280;61560;33.718;73.040;2022-08-21T03:48:08;94057.63;;;34.12;50.39
73332;BME280;61560;33.718;73.040;2022-08-21T03:50:38;94068.31;;;34.38;49.78
73332;BME280;61560;33.718;73.040;2022-08-21T03:53:06;94065.81;;;35.12;48.60
73332;BME280;61560;33.718;73.040;2022-08-21T03:55:52;94059.03;;;36.66;44.38
73332;BME280;61560;33.718;73.040;2022-08-21T03:58:23;94057.50;;;37.96;41.28
73332;BME280;61560;33.718;73.040;2022-08-21T04:00:53;94050.19;;;39.35;39.13
73332;BME280;61560;33.718;73.040;2022-08-21T04:03:21;94047.84;;;40.38;36.92
73332;BME280;61560;33.718;73.040;2022-08-21T04:05:49;94052.19;;;40.02;37.13
73332;BME280;61560;33.718;73.040;2022-08-21T04:08:17;94054.72;;;40.33;36.84
73332;BME280;61560;33.718;73.040;2022-08-21T04:10:46;94057.22;;;41.00;35.11
73332;BME280;61560;33.718;73.040;2022-08-21T04:13:13;94054.41;;;41.52;34.11
73332;BME280;61560;33.718;73.040;2022-08-21T04:15:41;94051.63;;;42.36;33.29
73332;BME280;61560;33.718;73.040;2022-08-21T04:18:07;94044.53;;;42.95;31.92
73332;BME280;61560;33.718;73.040;2022-08-21T04:20:34;94046.56;;;43.38;31.34
73332;BME280;61560;33.718;73.040;2022-08-21T04:23:02;94043.13;;;43.88;30.78
73332;BME280;61560;33.718;73.040;2022-08-21T04:25:29;94049.47;;;44.33;29.80
73332;BME280;61560;33.718;73.040;2022-08-21T04:27:56;94047.13;;;44.79;29.10
73332;BME280;61560;33.718;73.040;2022-08-21T04:30:23;94052.31;;;44.82;29.19
73332;BME280;61560;33.718;73.040;2022-08-21T04:32:50;94048.69;;;44.99;28.77
73332;BME280;61560;33.718;73.040;2022-08-21T04:35:20;94045.03;;;45.34;28.13
73332;BME280;61560;33.718;73.040;2022-08-21T04:37:48;94042.28;;;45.38;28.18
73332;BME280;61560;33.718;73.040;2022-08-21T04:40:17;94037.31;;;45.40;28.25
73332;BME280;61560;33.718;73.040;2022-08-21T04:42:47;94035.16;;;45.59;27.99
73332;BME280;61560;33.718;73.040;2022-08-21T04:45:30;94036.25;;;45.89;27.55
73332;BME280;61560;33.718;73.040;2022-08-21T04:47:59;94041.16;;;46.23;26.98
73332;BME280;61560;33.718;73.040;2022-08-21T04:51:23;94037.44;;;46.41;27.13
73332;BME280;61560;33.718;73.040;2022-08-21T04:55:54;94042.13;;;46.93;26.40
73332;BME280;61560;33.718;73.040;2022-08-21T04:58:22;94035.59;;;46.71;26.60
73332;BME280;61560;33.718;73.040;2022-08-21T05:00:54;94028.78;;;47.06;25.84
73332;BME280;61560;33.718;73.040;2022-08-21T05:03:23;94031.47;;;47.21;26.12
73332;BME280;61560;33.718;73.040;2022-08-21T05:05:50;94029.41;;;47.47;26.20
73332;BME280;61560;33.718;73.040;2022-08-21T05:08:19;94027.09;;;47.20;26.03
73332;BME280;61560;33.718;73.040;2022-08-21T05:10:49;94028.94;;;46.88;26.00
73332;BME280;61560;33.718;73.040;2022-08-21T05:13:16;94018.06;;;47.10;26.29
73332;BME280;61560;33.718;73.040;2022-08-21T05:15:43;94027.50;;;46.89;25.83
73332;BME280;61560;33.718;73.040;2022-08-21T05:18:09;94020.22;;;46.25;26.72
73332;BME280;61560;33.718;73.040;2022-08-21T05:20:36;94014.81;;;46.15;26.52
73332;BME280;61560;33.718;73.040;2022-08-21T05:23:11;94022.59;;;46.72;26.22
73332;BME280;61560;33.718;73.040;2022-08-21T05:25:38;94016.03;;;46.93;25.50
73332;BME280;61560;33.718;73.040;2022-08-21T05:28:05;94012.00;;;47.02;26.05
73332;BME280;61560;33.718;73.040;2022-08-21T05:30:34;94017.09;;;47.25;25.44
73332;BME280;61560;33.718;73.040;2022-08-21T05:33:02;94013.56;;;47.29;25.31
73332;BME280;61560;33.718;73.040;2022-08-21T05:35:30;94011.47;;;47.31;25.44
73332;BME280;61560;33.718;73.040;2022-08-21T05:37:59;94009.56;;;47.40;24.74
73332;BME280;61560;33.718;73.040;2022-08-21T05:40:26;94009.34;;;46.88;25.67
73332;BME280;61560;33.718;73.040;2022-08-21T05:42:54;93996.94;;;47.08;25.50
73332;BME280;61560;33.718;73.040;2022-08-21T05:45:29;93999.44;;;47.17;25.84
73332;BME280;61560;33.718;73.040;2022-08-21T05:47:56;93995.59;;;46.46;26.50
73332;BME280;61560;33.718;73.040;2022-08-21T05:50:23;93998.31;;;46.20;26.87
73332;BME280;61560;33.718;73.040;2022-08-21T05:52:50;94008.44;;;45.99;27.16
73332;BME280;61560;33.718;73.040;2022-08-21T05:55:16;93999.03;;;46.40;26.25
73332;BME280;61560;33.718;73.040;2022-08-21T05:57:43;93998.00;;;46.32;26.70
73332;BME280;61560;33.718;73.040;2022-08-21T06:00:09;93992.91;;;46.10;26.63
73332;BME280;61560;33.718;73.040;2022-08-21T06:02:41;94002.41;;;45.74;27.36
73332;BME280;61560;33.718;73.040;2022-08-21T06:05:07;93990.91;;;45.56;27.62
73332;BME280;61560;33.718;73.040;2022-08-21T06:07:34;93993.41;;;44.74;28.82
73332;BME280;61560;33.718;73.040;2022-08-21T06:10:00;93995.09;;;43.48;30.19
73332;BME280;61560;33.718;73.040;2022-08-21T06:12:27;93992.66;;;42.95;30.83
73332;BME280;61560;33.718;73.040;2022-08-21T06:14:54;93991.88;;;42.79;31.23
73332;BME280;61560;33.718;73.040;2022-08-21T06:17:21;93988.03;;;42.46;31.76
73332;BME280;61560;33.718;73.040;2022-08-21T06:19:51;93996.22;;;42.22;32.57
73332;BME280;61560;33.718;73.040;2022-08-21T06:22:18;93994.81;;;41.96;33.77
73332;BME280;61560;33.718;73.040;2022-08-21T06:24:45;93992.19;;;41.45;34.69
73332;BME280;61560;33.718;73.040;2022-08-21T06:27:12;93996.09;;;40.86;35.74
73332;BME280;61560;33.718;73.040;2022-08-21T06:29:38;93983.84;;;40.35;36.55
73332;BME280;61560;33.718;73.040;2022-08-21T06:32:05;93983.84;;;39.87;36.75
73332;BME280;61560;33.718;73.040;2022-08-21T06:34:39;93987.50;;;39.76;36.96
73332;BME280;61560;33.718;73.040;2022-08-21T06:37:07;93975.81;;;39.60;37.20
73332;BME280;61560;33.718;73.040;2022-08-21T06:39:34;93981.78;;;39.53;37.62
73332;BME280;61560;33.718;73.040;2022-08-21T06:42:01;93988.50;;;39.69;37.23
73332;BME280;61560;33.718;73.040;2022-08-21T06:44:29;93980.97;;;39.87;37.87
73332;BME280;61560;33.718;73.040;2022-08-21T06:46:56;93987.47;;;39.99;37.26
73332;BME280;61560;33.718;73.040;2022-08-21T06:49:23;93982.13;;;39.70;37.11
73332;BME280;61560;33.718;73.040;2022-08-21T06:51:49;93977.44;;;39.40;37.40
73332;BME280;61560;33.718;73.040;2022-08-21T06:54:16;93970.31;;;39.41;37.60
73332;BME280;61560;33.718;73.040;2022-08-21T06:56:43;93979.16;;;39.34;37.58
73332;BME280;61560;33.718;73.040;2022-08-21T06:59:09;93975.06;;;39.13;37.80
73332;BME280;61560;33.718;73.040;2022-08-21T07:01:36;93966.22;;;39.21;37.97
73332;BME280;61560;33.718;73.040;2022-08-21T07:04:02;93973.81;;;39.28;37.32
73332;BME280;61560;33.718;73.040;2022-08-21T07:06:30;93974.03;;;38.97;38.13
73332;BME280;61560;33.718;73.040;2022-08-21T07:08:57;93976.38;;;38.78;38.10
73332;BME280;61560;33.718;73.040;2022-08-21T07:11:25;93973.47;;;38.66;37.98
73332;BME280;61560;33.718;73.040;2022-08-21T07:13:52;93969.41;;;38.81;38.44
73332;BME280;61560;33.718;73.040;2022-08-21T07:16:20;93970.47;;;38.64;38.88
73332;BME280;61560;33.718;73.040;2022-08-21T07:18:47;93966.94;;;38.42;39.10
73332;BME280;61560;33.718;73.040;2022-08-21T07:21:16;93970.31;;;38.18;40.00
73332;BME280;61560;33.718;73.040;2022-08-21T07:23:45;93976.19;;;37.99;40.53
73332;BME280;61560;33.718;73.040;2022-08-21T07:26:14;93972.00;;;37.79;40.39
73332;BME280;61560;33.718;73.040;2022-08-21T07:28:41;93974.25;;;37.80;40.84
73332;BME280;61560;33.718;73.040;2022-08-21T07:31:09;93976.28;;;37.89;41.42
73332;BME280;61560;33.718;73.040;2022-08-21T07:33:36;93972.72;;;37.79;40.11
73332;BME280;61560;33.718;73.040;2022-08-21T07:36:03;93966.56;;;37.73;40.65
73332;BME280;61560;33.718;73.040;2022-08-21T07:38:30;93965.91;;;37.63;41.20
73332;BME280;61560;33.718;73.040;2022-08-21T07:40:58;93967.75;;;37.58;41.57
73332;BME280;61560;33.718;73.040;2022-08-21T07:43:26;93956.38;;;37.49;40.42
73332;BME280;61560;33.718;73.040;2022-08-21T07:45:53;93970.88;;;37.32;41.41
73332;BME280;61560;33.718;73.040;2022-08-21T07:48:21;93962.88;;;37.09;41.92
73332;BME280;61560;33.718;73.040;2022-08-21T07:50:49;93962.56;;;37.15;42.08
73332;BME280;61560;33.718;73.040;2022-08-21T07:53:16;93963.63;;;36.88;42.49
73332;BME280;61560;33.718;73.040;2022-08-21T07:55:43;93960.59;;;36.77;43.92
73332;BME280;61560;33.718;73.040;2022-08-21T07:58:09;93955.78;;;36.89;44.53
73332;BME280;61560;33.718;73.040;2022-08-21T08:00:39;93957.88;;;36.79;44.61
73332;BME280;61560;33.718;73.040;2022-08-21T08:03:06;93954.81;;;36.65;45.25
73332;BME280;61560;33.718;73.040;2022-08-21T08:05:33;93956.13;;;36.64;44.65
73332;BME280;61560;33.718;73.040;2022-08-21T08:08:03;93947.75;;;36.57;44.73
73332;BME280;61560;33.718;73.040;2022-08-21T08:10:29;93940.88;;;36.50;45.01
73332;BME280;61560;33.718;73.040;2022-08-21T08:12:56;93947.19;;;36.49;45.45
73332;BME280;61560;33.718;73.040;2022-08-21T08:15:26;93947.94;;;36.49;44.67
73332;BME280;61560;33.718;73.040;2022-08-21T08:17:53;93943.28;;;36.44;44.92
73332;BME280;61560;33.718;73.040;2022-08-21T08:20:21;93935.78;;;36.39;44.96
73332;BME280;61560;33.718;73.040;2022-08-21T08:22:49;93938.50;;;36.47;45.04
73332;BME280;61560;33.718;73.040;2022-08-21T08:25:16;93941.19;;;36.45;45.09
73332;BME280;61560;33.718;73.040;2022-08-21T08:27:44;93926.31;;;36.37;43.98
73332;BME280;61560;33.718;73.040;2022-08-21T08:30:13;93924.09;;;36.35;44.35
73332;BME280;61560;33.718;73.040;2022-08-21T08:32:41;93925.41;;;36.44;44.49
73332;BME280;61560;33.718;73.040;2022-08-21T08:35:08;93926.78;;;36.43;44.47
73332;BME280;61560;33.718;73.040;2022-08-21T08:37:36;93920.13;;;36.59;44.36
73332;BME280;61560;33.718;73.040;2022-08-21T08:40:36;93921.03;;;36.62;44.70
73332;BME280;61560;33.718;73.040;2022-08-21T08:43:06;93905.38;;;36.63;43.58
73332;BME280;61560;33.718;73.040;2022-08-21T08:45:37;93918.63;;;36.58;43.23
73332;BME280;61560;33.718;73.040;2022-08-21T08:48:10;93912.91;;;36.58;43.23
73332;BME280;61560;33.718;73.040;2022-08-21T08:50:56;93908.28;;;36.44;44.67
73332;BME280;61560;33.718;73.040;2022-08-21T08:53:30;93912.69;;;36.26;45.20
73332;BME280;61560;33.718;73.040;2022-08-21T08:56:00;93913.03;;;36.10;45.08
73332;BME280;61560;33.718;73.040;2022-08-21T08:58:34;93913.78;;;35.82;44.95
73332;BME280;61560;33.718;73.040;2022-08-21T09:01:06;93917.53;;;35.66;44.72
73332;BME280;61560;33.718;73.040;2022-08-21T09:03:41;93906.16;;;35.47;45.34
73332;BME280;61560;33.718;73.040;2022-08-21T09:06:34;93912.69;;;35.39;46.04
73332;BME280;61560;33.718;73.040;2022-08-21T09:12:07;93905.94;;;35.35;45.97
73332;BME280;61560;33.718;73.040;2022-08-21T09:20:27;93893.53;;;35.78;44.80
73332;BME280;61560;33.718;73.040;2022-08-21T09:26:11;93884.41;;;35.61;45.68
73332;BME280;61560;33.718;73.040;2022-08-21T09:28:39;93880.97;;;35.53;45.72
73332;BME280;61560;33.718;73.040;2022-08-21T09:31:23;93883.19;;;35.45;45.57
73332;BME280;61560;33.718;73.040;2022-08-21T09:33:58;93878.06;;;35.33;46.16
73332;BME280;61560;33.718;73.040;2022-08-21T09:36:51;93877.16;;;35.31;45.80
73332;BME280;61560;33.718;73.040;2022-08-21T09:39:28;93876.25;;;35.28;45.73
73332;BME280;61560;33.718;73.040;2022-08-21T09:42:02;93877.19;;;35.40;45.72
73332;BME280;61560;33.718;73.040;2022-08-21T09:44:33;93870.88;;;35.42;46.37
73332;BME280;61560;33.718;73.040;2022-08-21T09:47:10;93867.75;;;35.48;46.61
73332;BME280;61560;33.718;73.040;2022-08-21T09:49:41;93876.28;;;35.48;46.88
73332;BME280;61560;33.718;73.040;2022-08-21T09:52:20;93870.59;;;35.48;46.12
73332;BME280;61560;33.718;73.040;2022-08-21T09:54:54;93856.81;;;35.54;45.42
73332;BME280;61560;33.718;73.040;2022-08-21T09:57:30;93854.84;;;35.56;45.51
73332;BME280;61560;33.718;73.040;2022-08-21T10:00:19;93856.81;;;35.54;45.51
73332;BME280;61560;33.718;73.040;2022-08-21T10:02:49;93857.38;;;35.33;46.06
73332;BME280;61560;33.718;73.040;2022-08-21T10:05:21;93851.53;;;35.21;46.13
73332;BME280;61560;33.718;73.040;2022-08-21T10:07:50;93845.81;;;35.02;45.79
73332;BME280;61560;33.718;73.040;2022-08-21T10:10:23;93853.25;;;34.88;45.94
73332;BME280;61560;33.718;73.040;2022-08-21T10:13:17;93844.56;;;34.77;46.81
73332;BME280;61560;33.718;73.040;2022-08-21T10:21:24;93829.88;;;34.71;47.62
73332;BME280;61560;33.718;73.040;2022-08-21T10:24:09;93832.09;;;34.63;48.00
73332;BME280;61560;33.718;73.040;2022-08-21T10:27:28;93818.75;;;34.65;47.59
73332;BME280;61560;33.718;73.040;2022-08-21T10:29:57;93821.50;;;34.82;47.34
73332;BME280;61560;33.718;73.040;2022-08-21T10:35:26;93827.03;;;34.80;47.44
73332;BME280;61560;33.718;73.040;2022-08-21T10:38:34;93819.53;;;34.75;47.98
73332;BME280;61560;33.718;73.040;2022-08-21T10:43:52;93816.81;;;34.68;48.43
73332;BME280;61560;33.718;73.040;2022-08-21T10:49:21;93815.44;;;34.49;49.41
73332;BME280;61560;33.718;73.040;2022-08-21T10:54:48;93811.72;;;34.20;47.91
73332;BME280;61560;33.718;73.040;2022-08-21T10:57:40;93808.69;;;34.09;48.44
73332;BME280;61560;33.718;73.040;2022-08-21T11:00:12;93796.75;;;33.93;48.08
73332;BME280;61560;33.718;73.040;2022-08-21T11:02:55;93797.84;;;33.71;48.54
73332;BME280;61560;33.718;73.040;2022-08-21T11:05:46;93796.22;;;33.51;50.00
73332;BME280;61560;33.718;73.040;2022-08-21T11:08:32;93787.47;;;33.39;50.39
73332;BME280;61560;33.718;73.040;2022-08-21T11:11:12;93783.81;;;33.29;51.31
73332;BME280;61560;33.718;73.040;2022-08-21T11:13:53;93786.88;;;33.24;52.04
73332;BME280;61560;33.718;73.040;2022-08-21T11:26:51;93779.41;;;33.01;52.81
73332;BME280;61560;33.718;73.040;2022-08-21T11:29:31;93774.66;;;33.04;53.68
73332;BME280;61560;33.718;73.040;2022-08-21T11:35:21;93765.72;;;33.08;52.65
73332;BME280;61560;33.718;73.040;2022-08-21T11:38:07;93777.06;;;33.08;52.15
73332;BME280;61560;33.718;73.040;2022-08-21T11:49:24;93773.47;;;33.07;52.00
73332;BME280;61560;33.718;73.040;2022-08-21T11:55:09;93767.53;;;32.95;53.83
73332;BME280;61560;33.718;73.040;2022-08-21T11:57:41;93762.28;;;32.92;53.40
73332;BME280;61560;33.718;73.040;2022-08-21T12:02:53;93754.34;;;32.73;54.03
73332;BME280;61560;33.718;73.040;2022-08-21T12:05:32;93767.44;;;32.69;54.33
73332;BME280;61560;33.718;73.040;2022-08-21T12:08:05;93770.75;;;32.58;54.15
73332;BME280;61560;33.718;73.040;2022-08-21T12:10:40;93756.53;;;32.65;53.86
73332;BME280;61560;33.718;73.040;2022-08-21T12:13:09;93764.44;;;32.67;53.82
73332;BME280;61560;33.718;73.040;2022-08-21T12:15:37;93761.88;;;32.61;53.43
73332;BME280;61560;33.718;73.040;2022-08-21T12:18:20;93754.50;;;32.58;54.14
73332;BME280;61560;33.718;73.040;2022-08-21T12:21:01;93758.09;;;32.59;53.81
73332;BME280;61560;33.718;73.040;2022-08-21T12:23:31;93751.69;;;32.58;54.31
73332;BME280;61560;33.718;73.040;2022-08-21T12:26:21;93748.25;;;32.60;54.52
73332;BME280;61560;33.718;73.040;2022-08-21T12:28:49;93738.50;;;32.53;54.50
73332;BME280;61560;33.718;73.040;2022-08-21T12:31:26;93737.59;;;32.51;54.98
73332;BME280;61560;33.718;73.040;2022-08-21T12:33:58;93745.50;;;32.52;54.33
73332;BME280;61560;33.718;73.040;2022-08-21T12:36:42;93735.91;;;32.48;53.73
73332;BME280;61560;33.718;73.040;2022-08-21T12:39:15;93733.88;;;32.41;54.21
73332;BME280;61560;33.718;73.040;2022-08-21T12:41:53;93715.78;;;32.36;54.33
73332;BME280;61560;33.718;73.040;2022-08-21T12:44:45;93720.94;;;32.30;54.67
73332;BME280;61560;33.718;73.040;2022-08-21T12:50:05;93715.34;;;32.22;55.54
73332;BME280;61560;33.718;73.040;2022-08-21T12:52:40;93706.91;;;32.15;55.11
73332;BME280;61560;33.718;73.040;2022-08-21T12:55:12;93713.94;;;32.14;55.20
73332;BME280;61560;33.718;73.040;2022-08-21T12:57:40;93702.25;;;32.10;54.74
73332;BME280;61560;33.718;73.040;2022-08-21T14:02:38;93722.16;;;30.66;58.01
73332;BME280;61560;33.718;73.040;2022-08-21T14:05:07;93729.28;;;30.67;58.16
73332;BME280;61560;33.718;73.040;2022-08-21T14:07:42;93713.63;;;30.73;58.03
73332;BME280;61560;33.718;73.040;2022-08-21T14:10:20;93713.59;;;30.81;58.00
73332;BME280;61560;33.718;73.040;2022-08-21T14:13:06;93723.22;;;30.86;58.15
73332;BME280;61560;33.718;73.040;2022-08-21T14:15:34;93732.81;;;30.83;58.33
73332;BME280;61560;33.718;73.040;2022-08-21T14:20:36;93724.72;;;30.79;58.85
73332;BME280;61560;33.718;73.040;2022-08-21T14:23:04;93721.72;;;30.77;58.69
73332;BME280;61560;33.718;73.040;2022-08-21T14:28:28;93713.97;;;30.78;59.61
73332;BME280;61560;33.718;73.040;2022-08-21T14:30:58;93716.81;;;30.78;59.83
73332;BME280;61560;33.718;73.040;2022-08-21T14:33:31;93719.47;;;30.76;59.58
73332;BME280;61560;33.718;73.040;2022-08-21T14:36:04;93714.19;;;30.72;59.36
73332;BME280;61560;33.718;73.040;2022-08-21T14:38:31;93711.59;;;30.66;59.20
73332;BME280;61560;33.718;73.040;2022-08-21T14:41:12;93722.31;;;30.68;59.47
73332;BME280;61560;33.718;73.040;2022-08-21T14:43:43;93733.81;;;30.62;60.02
73332;BME280;61560;33.718;73.040;2022-08-21T14:46:12;93728.78;;;30.53;59.65
73332;BME280;61560;33.718;73.040;2022-08-21T14:48:40;93727.84;;;30.51;60.00
73332;BME280;61560;33.718;73.040;2022-08-21T14:51:06;93725.41;;;30.47;60.29
73332;BME280;61560;33.718;73.040;2022-08-21T14:53:33;93718.41;;;30.48;59.99
73332;BME280;61560;33.718;73.040;2022-08-21T14:55:59;93725.75;;;30.51;59.88
73332;BME280;61560;33.718;73.040;2022-08-21T14:58:43;93729.16;;;30.50;59.65
73332;BME280;61560;33.718;73.040;2022-08-21T15:01:12;93732.00;;;30.50;59.51
73332;BME280;61560;33.718;73.040;2022-08-21T15:03:48;93732.72;;;30.50;59.47
73332;BME280;61560;33.718;73.040;2022-08-21T15:06:15;93730.28;;;30.47;59.41
73332;BME280;61560;33.718;73.040;2022-08-21T15:08:43;93739.72;;;30.49;59.37
73332;BME280;61560;33.718;73.040;2022-08-21T15:11:14;93739.13;;;30.51;58.86
73332;BME280;61560;33.718;73.040;2022-08-21T15:13:42;93739.50;;;30.55;58.74
73332;BME280;61560;33.718;73.040;2022-08-21T15:16:11;93736.31;;;30.51;58.87
73332;BME280;61560;33.718;73.040;2022-08-21T15:18:39;93741.78;;;30.49;58.95
73332;BME280;61560;33.718;73.040;2022-08-21T15:21:05;93754.06;;;30.44;58.99
73332;BME280;61560;33.718;73.040;2022-08-21T15:23:32;93753.13;;;30.41;59.19
73332;BME280;61560;33.718;73.040;2022-08-21T15:25:59;93750.47;;;30.43;58.62
73332;BME280;61560;33.718;73.040;2022-08-21T15:28:26;93754.25;;;30.46;59.51
73332;BME280;61560;33.718;73.040;2022-08-21T15:30:52;93751.97;;;30.44;59.30
73332;BME280;61560;33.718;73.040;2022-08-21T15:33:20;93748.41;;;30.36;59.92
73332;BME280;61560;33.718;73.040;2022-08-21T15:35:47;93758.38;;;30.30;60.14
73332;BME280;61560;33.718;73.040;2022-08-21T15:38:15;93754.25;;;30.23;60.36
73332;BME280;61560;33.718;73.040;2022-08-21T15:40:42;93748.78;;;30.25;60.37
73332;BME280;61560;33.718;73.040;2022-08-21T15:43:26;93751.97;;;30.22;60.66
73332;BME280;61560;33.718;73.040;2022-08-21T15:45:54;93745.41;;;30.19;61.00
73332;BME280;61560;33.718;73.040;2022-08-21T15:48:21;93751.25;;;30.21;60.88
73332;BME280;61560;33.718;73.040;2022-08-21T15:50:48;93752.53;;;30.20;61.42
73332;BME280;61560;33.718;73.040;2022-08-21T15:53:14;93743.88;;;30.18;61.37
73332;BME280;61560;33.718;73.040;2022-08-21T15:55:41;93752.34;;;30.18;61.33
73332;BME280;61560;33.718;73.040;2022-08-21T15:58:13;93746.16;;;30.12;61.84
73332;BME280;61560;33.718;73.040;2022-08-21T16:00:41;93743.16;;;30.03;61.38
73332;BME280;61560;33.718;73.040;2022-08-21T16:03:12;93744.66;;;29.96;61.25
73332;BME280;61560;33.718;73.040;2022-08-21T16:05:45;93748.06;;;29.95;60.20
73332;BME280;61560;33.718;73.040;2022-08-21T16:08:14;93748.25;;;29.97;59.60
73332;BME280;61560;33.718;73.040;2022-08-21T16:10:41;93737.69;;;29.89;59.35
73332;BME280;61560;33.718;73.040;2022-08-21T16:13:23;93746.16;;;29.89;59.45
73332;BME280;61560;33.718;73.040;2022-08-21T16:15:51;93747.09;;;29.84;59.71
73332;BME280;61560;33.718;73.040;2022-08-21T16:18:19;93760.47;;;29.84;60.27
73332;BME280;61560;33.718;73.040;2022-08-21T16:20:48;93759.53;;;29.81;60.03